createdAt,value
2022-09-16T00:00:53.039Z,2.00
2022-09-16T00:03:20.238Z,1.77
2022-09-16T00:05:52.829Z,2.17
2022-09-16T00:08:21.515Z,2.13
2022-09-16T00:10:48.834Z,1.63
2022-09-16T00:13:16.197Z,1.52
2022-09-16T00:15:49.067Z,1.98
2022-09-16T00:18:15.724Z,1.48
2022-09-16T00:20:47.656Z,1.50
2022-09-16T00:23:14.770Z,1.75
2022-09-16T00:25:41.638Z,1.50
2022-09-16T00:28:08.554Z,1.58
2022-09-16T00:30:35.647Z,1.52
2022-09-16T00:33:02.509Z,1.90
2022-09-16T00:35:29.264Z,1.90
2022-09-16T00:37:56.003Z,2.15
2022-09-16T00:40:23.036Z,1.90
2022-09-16T00:42:49.954Z,2.08
2022-09-16T00:45:20.855Z,2.17
2022-09-16T00:47:57.301Z,2.17
2022-09-16T00:50:37.978Z,2.40
2022-09-16T00:53:07.429Z,2.13
2022-09-16T00:55:37.081Z,2.22
2022-09-16T00:58:26.371Z,2.10
2022-09-16T01:00:53.152Z,2.22
2022-09-16T01:03:20.615Z,2.20
2022-09-16T01:05:49.035Z,2.33
2022-09-16T01:08:15.992Z,1.95
2022-09-16T01:10:43.669Z,1.90
2022-09-16T01:13:14.585Z,2.45
2022-09-16T01:15:48.241Z,1.98
2022-09-16T01:18:38.977Z,1.70
2022-09-16T01:21:14.596Z,2.00
2022-09-16T01:23:51.029Z,1.73
2022-09-16T01:26:51.855Z,1.85
2022-09-16T01:30:07.006Z,1.80
2022-09-16T01:32:46.500Z,2.58
2022-09-16T01:35:38.380Z,2.55
2022-09-16T01:38:26.118Z,2.78
2022-09-16T01:41:05.005Z,2.95
2022-09-16T01:43:50.770Z,2.92
2022-09-16T01:47:09.114Z,2.83
2022-09-16T01:49:46.789Z,3.22
2022-09-16T01:52:33.491Z,3.97
2022-09-16T01:55:15.739Z,3.15
2022-09-16T01:57:56.006Z,3.05
2022-09-16T02:00:23.172Z,3.38
2022-09-16T02:02:59.066Z,3.50
2022-09-16T02:05:37.261Z,3.35
2022-09-16T02:08:10.274Z,3.17
2022-09-16T02:10:46.925Z,3.35
2022-09-16T02:13:20.106Z,3.42
2022-09-16T02:15:51.229Z,3.80
2022-09-16T02:18:22.978Z,3.63
2022-09-16T02:20:54.235Z,3.65
2022-09-16T02:23:29.430Z,3.40
2022-09-16T02:25:58.167Z,2.63
2022-09-16T02:28:30.296Z,2.90
2022-09-16T02:31:00.412Z,3.35
2022-09-16T02:33:32.847Z,3.10
2022-09-16T02:36:02.012Z,2.80
2022-09-16T02:38:40.379Z,2.53
2022-09-16T02:41:09.736Z,2.30
2022-09-16T02:43:37.133Z,2.25
2022-09-16T02:46:20.975Z,1.88
2022-09-16T02:49:05.854Z,2.25
2022-09-16T02:51:42.297Z,2.22
2022-09-16T02:54:21.804Z,1.60
2022-09-16T02:56:48.710Z,1.60
2022-09-16T02:59:16.627Z,1.42
2022-09-16T03:01:46.234Z,1.60
2022-09-16T03:04:15.635Z,2.10
2022-09-16T03:06:43.973Z,1.65
2022-09-16T03:09:13.274Z,1.83
2022-09-16T03:11:52.331Z,1.88
2022-09-16T03:14:30.349Z,1.70
2022-09-16T03:17:05.487Z,1.80
2022-09-16T03:19:38.739Z,1.95
2022-09-16T03:22:18.823Z,1.60
2022-09-16T03:24:54.843Z,1.50
2022-09-16T03:27:41.448Z,2.03
2022-09-16T03:30:10.679Z,1.60
2022-09-16T03:32:47.550Z,2.13
2022-09-16T03:35:25.771Z,2.40
2022-09-16T03:37:58.277Z,1.95
2022-09-16T03:40:30.770Z,2.13
2022-09-16T03:42:58.690Z,1.92
2022-09-16T03:45:25.800Z,2.33
2022-09-16T03:47:53.357Z,2.30
2022-09-16T03:50:21.266Z,2.40
2022-09-16T03:52:48.279Z,2.60
2022-09-16T03:55:17.171Z,3.25
2022-09-16T03:57:44.010Z,2.75
2022-09-16T04:00:11.529Z,3.22
2022-09-16T04:02:38.548Z,3.30
2022-09-16T04:05:05.804Z,3.75
2022-09-16T04:07:33.639Z,3.90
2022-09-16T04:10:01.389Z,4.35
2022-09-16T04:12:28.630Z,4.13
2022-09-16T04:14:55.373Z,4.40
2022-09-16T04:17:22.080Z,4.45
2022-09-16T04:19:48.866Z,4.93
2022-09-16T04:22:15.628Z,4.65
2022-09-16T04:24:43.438Z,4.18
2022-09-16T04:27:10.313Z,4.13
2022-09-16T04:29:37.047Z,3.25
2022-09-16T04:32:03.767Z,3.13
2022-09-16T04:34:32.210Z,3.13
2022-09-16T04:36:59.333Z,3.03
2022-09-16T04:39:26.024Z,2.83
2022-09-16T04:41:52.657Z,2.15
2022-09-16T04:44:19.303Z,2.40
2022-09-16T04:46:45.928Z,2.20
2022-09-16T04:49:12.899Z,2.38
2022-09-16T04:51:39.967Z,2.58
2022-09-16T04:54:06.716Z,2.03
2022-09-16T04:56:33.759Z,3.22
2022-09-16T04:59:03.273Z,1.88
2022-09-16T05:01:32.751Z,2.20
2022-09-16T05:04:02.266Z,2.47
2022-09-16T05:06:35.507Z,2.80
2022-09-16T05:09:05.729Z,2.63
2022-09-16T05:11:36.683Z,2.28
2022-09-16T05:14:05.847Z,2.53
2022-09-16T05:16:33.234Z,2.22
2022-09-16T05:19:03.642Z,1.98
2022-09-16T05:21:34.508Z,1.83
2022-09-16T05:24:02.942Z,2.10
2022-09-16T05:26:32.052Z,2.83
2022-09-16T05:29:05.137Z,2.25
2022-09-16T05:31:34.490Z,2.10
2022-09-16T05:34:05.602Z,1.95
2022-09-16T05:36:34.831Z,2.25
2022-09-16T05:41:50.864Z,2.25
2022-09-16T05:44:17.960Z,2.05
2022-09-16T05:46:44.637Z,2.72
2022-09-16T05:49:11.790Z,1.98
2022-09-16T05:51:41.296Z,2.33
2022-09-16T05:54:08.090Z,2.05
2022-09-16T05:56:34.721Z,2.40
2022-09-16T05:59:02.112Z,2.28
2022-09-16T06:01:35.547Z,2.13
2022-09-16T06:06:48.122Z,1.90
2022-09-16T06:09:16.399Z,2.08
2022-09-16T06:11:45.987Z,1.80
2022-09-16T06:14:13.662Z,1.52
2022-09-16T06:16:43.569Z,1.60
2022-09-16T06:19:16.132Z,1.83
2022-09-16T06:21:44.496Z,1.65
2022-09-16T06:24:12.218Z,2.25
2022-09-16T06:26:41.689Z,1.85
2022-09-16T06:29:09.687Z,2.55
2022-09-16T06:31:37.717Z,1.35
2022-09-16T06:34:05.590Z,1.67
2022-09-16T06:36:41.507Z,2.05
2022-09-16T06:39:15.450Z,1.50
2022-09-16T06:41:42.799Z,2.17
2022-09-16T06:44:09.665Z,1.52
2022-09-16T06:46:37.069Z,1.73
2022-09-16T06:49:06.187Z,1.30
2022-09-16T06:51:34.329Z,1.20
2022-09-16T06:54:03.284Z,2.08
2022-09-16T06:56:30.243Z,1.48
2022-09-16T06:58:57.474Z,1.05
2022-09-16T07:01:27.022Z,0.93
2022-09-16T07:03:55.196Z,1.00
2022-09-16T07:06:33.456Z,1.15
2022-09-16T07:09:10.255Z,0.93
2022-09-16T07:11:36.974Z,0.70
2022-09-16T07:14:05.034Z,1.10
2022-09-16T07:16:34.102Z,0.90
2022-09-16T07:19:01.376Z,0.82
2022-09-16T07:21:30.435Z,1.23
2022-09-16T07:23:59.115Z,1.08
2022-09-16T07:26:28.518Z,0.90
2022-09-16T07:28:55.828Z,0.95
2022-09-16T07:31:25.628Z,1.00
2022-09-16T07:33:55.051Z,0.90
2022-09-16T07:36:28.258Z,0.98
2022-09-16T07:38:58.442Z,1.10
2022-09-16T07:41:27.713Z,1.27
2022-09-16T07:43:56.321Z,1.25
2022-09-16T07:46:25.281Z,1.05
2022-09-16T07:48:52.168Z,0.90
2022-09-16T07:51:22.076Z,0.90
2022-09-16T07:53:53.526Z,1.40
2022-09-16T07:56:23.066Z,1.00
2022-09-16T07:58:49.822Z,1.20
2022-09-16T08:01:17.490Z,1.10
2022-09-16T08:03:45.575Z,1.40
2022-09-16T08:06:15.353Z,1.05
2022-09-16T08:08:42.415Z,0.80
2022-09-16T08:11:12.481Z,1.00
2022-09-16T08:13:39.756Z,1.00
2022-09-16T08:16:09.075Z,0.85
2022-09-16T08:18:36.206Z,1.10
2022-09-16T08:21:10.435Z,1.00
2022-09-16T08:23:37.941Z,1.25
2022-09-16T08:26:05.639Z,1.05
2022-09-16T08:28:40.128Z,1.05
2022-09-16T08:31:19.774Z,1.25
2022-09-16T08:33:47.029Z,1.00
2022-09-16T08:36:20.439Z,0.93
2022-09-16T08:38:48.896Z,0.75
2022-09-16T08:41:15.513Z,1.25
2022-09-16T08:44:10.400Z,0.93
2022-09-16T08:46:59.713Z,0.80
2022-09-16T08:49:42.517Z,0.93
2022-09-16T08:52:23.048Z,1.05
2022-09-16T08:55:00.381Z,0.88
2022-09-16T08:57:30.457Z,1.00
2022-09-16T09:00:04.568Z,0.93
2022-09-16T09:02:57.502Z,0.85
2022-09-16T09:05:36.409Z,1.20
2022-09-16T09:08:40.318Z,0.98
2022-09-16T09:11:19.819Z,0.95
2022-09-16T09:14:24.070Z,1.10
2022-09-16T09:17:24.433Z,0.80
2022-09-16T09:20:32.504Z,0.90
2022-09-16T09:23:23.914Z,1.23
2022-09-16T09:26:05.357Z,1.13
2022-09-16T09:29:15.527Z,0.85
2022-09-16T09:31:56.221Z,1.08
2022-09-16T09:34:37.130Z,1.00
2022-09-16T09:37:35.702Z,1.20
2022-09-16T09:40:14.787Z,1.25
2022-09-16T09:42:47.831Z,1.27
2022-09-16T09:45:14.436Z,1.13
2022-09-16T09:47:58.213Z,1.40
2022-09-16T09:50:47.571Z,0.95
2022-09-16T09:53:33.344Z,1.40
2022-09-16T09:56:13.458Z,1.42
2022-09-16T09:59:02.983Z,0.82
2022-09-16T10:01:30.177Z,0.90
2022-09-16T10:03:59.988Z,1.25
2022-09-16T10:06:30.485Z,0.98
2022-09-16T10:08:59.541Z,1.23
2022-09-16T10:11:32.396Z,1.00
2022-09-16T10:14:01.004Z,0.95
2022-09-16T10:16:37.155Z,1.15
2022-09-16T10:19:09.155Z,1.05
2022-09-16T10:21:53.349Z,0.90
2022-09-16T10:24:38.576Z,0.80
2022-09-16T10:27:22.075Z,0.88
2022-09-16T10:30:03.937Z,0.95
2022-09-16T10:32:31.719Z,1.10
2022-09-16T10:34:58.458Z,0.90
2022-09-16T10:37:27.833Z,0.95
2022-09-16T10:40:02.164Z,0.63
2022-09-16T10:42:29.424Z,0.65
2022-09-16T10:45:24.341Z,1.05
2022-09-16T10:47:55.651Z,0.68
2022-09-16T10:50:23.147Z,0.63
2022-09-16T10:52:50.557Z,0.68
2022-09-16T10:55:26.905Z,0.93
2022-09-16T10:58:06.277Z,0.70
2022-09-16T11:00:45.597Z,0.80
2022-09-16T11:03:40.348Z,0.80
2022-09-16T11:06:35.676Z,0.70
2022-09-16T11:09:26.930Z,0.93
2022-09-16T11:12:32.169Z,0.50
2022-09-16T11:15:11.154Z,0.95
2022-09-16T11:18:20.106Z,0.90
2022-09-16T11:20:55.982Z,0.75
2022-09-16T11:23:48.836Z,0.70
2022-09-16T11:26:43.824Z,0.90
2022-09-16T11:29:37.936Z,0.82
2022-09-16T11:32:07.449Z,0.80
2022-09-16T11:35:00.221Z,0.77
2022-09-16T11:37:41.079Z,0.68
2022-09-16T11:40:32.404Z,0.47
2022-09-16T11:43:37.900Z,0.50
2022-09-16T11:46:23.367Z,0.57
2022-09-16T11:49:28.560Z,0.63
2022-09-16T11:52:33.032Z,0.70
2022-09-16T11:55:22.217Z,0.98
2022-09-16T11:57:55.564Z,0.80
2022-09-16T12:00:22.948Z,0.75
2022-09-16T12:02:59.511Z,1.08
2022-09-16T12:05:54.682Z,1.15
2022-09-16T12:08:50.188Z,0.70
2022-09-16T12:11:41.217Z,1.58
2022-09-16T12:14:13.888Z,1.10
2022-09-16T12:17:01.422Z,0.85
2022-09-16T12:19:53.700Z,1.20
2022-09-16T12:22:55.124Z,1.13
2022-09-16T12:25:44.220Z,1.13
2022-09-16T12:28:38.791Z,1.10
2022-09-16T12:31:30.282Z,1.88
2022-09-16T12:34:02.729Z,1.10
2022-09-16T12:36:36.958Z,1.13
2022-09-16T12:39:04.235Z,1.40
2022-09-16T12:42:07.335Z,1.42
2022-09-16T12:45:03.218Z,1.38
2022-09-16T12:47:46.901Z,1.40
2022-09-16T12:50:43.195Z,1.25
2022-09-16T12:53:46.467Z,1.77
2022-09-16T12:56:46.979Z,1.08
2022-09-16T12:59:25.892Z,1.33
2022-09-16T13:02:01.654Z,1.80
2022-09-16T13:04:37.879Z,1.38
2022-09-16T13:07:05.132Z,1.40
2022-09-16T13:09:38.789Z,1.55
2022-09-16T13:12:39.078Z,1.83
2022-09-16T13:15:06.576Z,2.30
2022-09-16T13:17:44.171Z,1.77
2022-09-16T13:23:12.107Z,1.48
2022-09-16T13:25:59.404Z,1.45
2022-09-16T13:28:39.628Z,1.50
2022-09-16T13:31:12.586Z,1.95
2022-09-16T13:33:41.369Z,1.88
2022-09-16T13:36:33.597Z,1.73
2022-09-16T13:39:06.346Z,2.65
2022-09-16T13:41:41.689Z,1.95
2022-09-16T13:44:42.080Z,1.73
2022-09-16T13:47:12.079Z,1.90
2022-09-16T13:49:51.735Z,2.25
2022-09-16T13:52:36.716Z,1.83
2022-09-16T13:55:19.700Z,1.70
2022-09-16T13:57:53.452Z,2.13
2022-09-16T14:00:32.277Z,2.00
2022-09-16T14:03:33.892Z,1.75
2022-09-16T14:06:36.322Z,2.05
2022-09-16T14:09:28.851Z,2.00
2022-09-16T14:12:04.021Z,2.42
2022-09-16T14:14:50.345Z,2.03
2022-09-16T14:17:24.214Z,1.42
2022-09-16T14:19:56.820Z,1.35
2022-09-16T14:22:26.802Z,1.60
2022-09-16T14:25:05.792Z,2.00
2022-09-16T14:27:37.396Z,1.63
2022-09-16T14:30:19.679Z,1.33
2022-09-16T14:32:48.603Z,1.67
2022-09-16T14:35:23.173Z,1.30
2022-09-16T14:38:00.742Z,2.00
2022-09-16T14:40:28.483Z,1.27
2022-09-16T14:43:01.242Z,1.20
2022-09-16T14:45:30.436Z,1.48
2022-09-16T14:48:00.397Z,1.42
2022-09-16T14:50:31.012Z,0.80
2022-09-16T14:53:04.486Z,0.85
2022-09-16T14:55:35.940Z,0.80
2022-09-16T14:58:03.611Z,1.10
2022-09-16T15:00:45.275Z,0.80
2022-09-16T15:03:18.173Z,1.05
2022-09-16T15:05:47.476Z,1.30
2022-09-16T15:08:17.685Z,1.27
2022-09-16T15:10:52.300Z,0.88
2022-09-16T15:13:22.688Z,1.13
2022-09-16T15:15:54.542Z,1.45
2022-09-16T15:18:25.311Z,1.27
2022-09-16T15:20:56.964Z,1.10
2022-09-16T15:23:27.107Z,1.15
2022-09-16T15:26:07.543Z,1.20
2022-09-16T15:28:34.201Z,1.63
2022-09-16T15:31:01.082Z,0.90
2022-09-16T15:33:34.559Z,1.55
2022-09-16T15:36:02.817Z,1.25
2022-09-16T15:38:31.410Z,1.20
2022-09-16T15:41:03.994Z,1.50
2022-09-16T15:43:39.798Z,0.95
2022-09-16T15:46:16.255Z,0.77
2022-09-16T15:48:49.667Z,1.30
2022-09-16T15:51:31.885Z,1.05
2022-09-16T15:54:22.271Z,1.20
2022-09-16T15:57:02.459Z,1.55
2022-09-16T15:59:34.983Z,1.42
2022-09-16T16:02:07.475Z,1.10
2022-09-16T16:04:34.786Z,1.13
2022-09-16T16:07:04.120Z,1.50
2022-09-16T16:09:32.252Z,1.27
2022-09-16T16:12:01.420Z,1.50
2022-09-16T16:14:33.140Z,0.80
2022-09-16T16:17:21.117Z,1.27
2022-09-16T16:19:49.905Z,1.25
2022-09-16T16:22:18.018Z,1.50
2022-09-16T16:24:45.320Z,0.93
2022-09-16T16:27:12.359Z,1.23
2022-09-16T16:29:39.825Z,1.25
2022-09-16T16:32:09.327Z,1.05
2022-09-16T16:34:39.344Z,1.10
2022-09-16T16:37:07.550Z,1.45
2022-09-16T16:39:34.982Z,1.60
2022-09-16T16:42:06.188Z,1.27
2022-09-16T16:44:33.590Z,1.67
2022-09-16T16:47:01.014Z,1.00
2022-09-16T16:49:27.626Z,1.60
2022-09-16T16:52:00.953Z,3.22
2022-09-16T16:54:28.729Z,1.33
2022-09-16T16:56:55.855Z,1.75
2022-09-16T16:59:23.631Z,1.77
2022-09-16T17:01:57.914Z,2.40
2022-09-16T17:04:25.406Z,1.00
2022-09-16T17:07:14.575Z,2.13
2022-09-16T17:09:39.234Z,1.20
2022-09-16T17:12:06.327Z,2.60
2022-09-16T17:14:33.854Z,2.08
2022-09-16T17:17:02.818Z,0.90
2022-09-16T17:19:29.424Z,1.00
2022-09-16T17:21:59.849Z,1.90
2022-09-16T17:24:26.487Z,1.17
2022-09-16T17:26:53.016Z,0.90
2022-09-16T17:29:20.171Z,1.52
2022-09-16T17:31:46.945Z,1.58
2022-09-16T17:34:15.853Z,1.52
2022-09-16T17:36:45.058Z,2.05
2022-09-16T17:39:17.761Z,1.35
2022-09-16T17:41:46.482Z,2.08
2022-09-16T17:44:14.567Z,2.05
2022-09-16T17:46:43.040Z,1.20
2022-09-16T17:49:23.763Z,1.50
2022-09-16T17:52:19.041Z,1.65
2022-09-16T17:54:45.708Z,1.33
2022-09-16T17:57:12.866Z,0.70
2022-09-16T17:59:40.939Z,1.00
2022-09-16T18:02:09.738Z,1.35
2022-09-16T18:04:36.493Z,1.02
2022-09-16T18:07:03.478Z,0.93
2022-09-16T18:09:30.078Z,1.13
2022-09-16T18:11:58.465Z,0.90
2022-09-16T18:14:25.006Z,1.08
2022-09-16T18:16:51.960Z,0.90
2022-09-16T18:19:18.879Z,1.30
2022-09-16T18:21:45.755Z,1.20
2022-09-16T18:24:13.109Z,1.65
2022-09-16T18:26:42.058Z,1.38
2022-09-16T18:29:11.762Z,1.00
2022-09-16T18:31:40.934Z,1.20
2022-09-16T18:34:07.609Z,1.67
2022-09-16T18:36:36.759Z,1.40
2022-09-16T18:39:04.895Z,1.20
2022-09-16T18:41:35.866Z,3.38
2022-09-16T18:44:07.516Z,1.50
2022-09-16T18:46:36.607Z,1.95
2022-09-16T18:49:04.137Z,2.17
2022-09-16T18:51:32.871Z,2.35
2022-09-16T18:54:03.163Z,2.65
2022-09-16T18:56:32.131Z,2.38
2022-09-16T18:59:21.134Z,2.65
2022-09-16T19:01:49.673Z,2.47
2022-09-16T19:04:21.247Z,2.70
2022-09-16T19:06:50.014Z,1.77
2022-09-16T19:09:19.163Z,1.60
2022-09-16T19:11:46.413Z,1.75
2022-09-16T19:14:14.183Z,1.63
2022-09-16T19:16:42.929Z,1.80
2022-09-16T19:19:11.523Z,1.80
2022-09-16T19:21:38.591Z,1.90
2022-09-16T19:24:07.563Z,2.25
2022-09-16T19:26:37.393Z,1.75
2022-09-16T19:29:06.778Z,2.17
2022-09-16T19:31:35.351Z,2.80
2022-09-16T19:34:02.713Z,2.28
2022-09-16T19:36:31.839Z,1.95
2022-09-16T19:38:59.386Z,1.70
2022-09-16T19:41:29.173Z,1.75
2022-09-16T19:43:59.547Z,2.20
2022-09-16T19:46:27.716Z,1.67
2022-09-16T19:48:55.054Z,1.58
2022-09-16T19:51:24.227Z,1.88
2022-09-16T19:53:52.670Z,2.45
2022-09-16T19:56:22.359Z,1.75
2022-09-16T19:58:51.083Z,2.03
2022-09-16T20:01:20.168Z,1.80
2022-09-16T20:03:49.673Z,2.60
2022-09-16T20:06:19.204Z,2.60
2022-09-16T20:08:47.534Z,1.70
2022-09-16T20:11:19.717Z,1.73
2022-09-16T20:13:55.196Z,2.60
2022-09-16T20:16:24.658Z,1.60
2022-09-16T20:18:52.299Z,2.28
2022-09-16T20:21:25.284Z,1.90
2022-09-16T20:23:53.108Z,2.05
2022-09-16T20:26:20.600Z,1.67
2022-09-16T20:28:52.413Z,1.50
2022-09-16T20:31:22.474Z,1.70
2022-09-16T20:33:50.067Z,1.65
2022-09-16T20:36:19.161Z,2.42
2022-09-16T20:38:45.930Z,2.28
2022-09-16T20:41:14.438Z,1.90
2022-09-16T20:43:41.490Z,1.60
2022-09-16T20:46:13.975Z,1.67
2022-09-16T20:48:41.286Z,1.80
2022-09-16T20:51:17.779Z,0.98
2022-09-16T20:53:51.235Z,1.00
2022-09-16T20:56:21.752Z,1.30
2022-09-16T20:58:48.576Z,1.38
2022-09-16T21:01:21.028Z,1.40
2022-09-16T21:03:51.718Z,1.40
2022-09-16T21:06:18.745Z,1.50
2022-09-16T21:08:45.565Z,2.50
2022-09-16T21:11:14.562Z,1.58
2022-09-16T21:13:43.132Z,1.83
2022-09-16T21:16:12.358Z,2.00
2022-09-16T21:18:39.922Z,1.85
2022-09-16T21:21:11.344Z,2.00
2022-09-16T21:23:38.404Z,2.05
2022-09-16T21:26:08.257Z,2.20
2022-09-16T21:28:34.991Z,2.15
2022-09-16T21:31:07.844Z,3.20
2022-09-16T21:33:35.934Z,2.42
2022-09-16T21:36:07.093Z,2.45
2022-09-16T21:38:33.814Z,2.75
2022-09-16T21:41:07.904Z,3.15
2022-09-16T21:43:39.217Z,2.08
2022-09-16T21:46:09.911Z,3.05
2022-09-16T21:48:37.521Z,2.78
2022-09-16T21:51:07.054Z,3.42
2022-09-16T21:53:37.196Z,2.42
2022-09-16T21:56:09.239Z,2.58
2022-09-16T21:58:35.877Z,2.25
2022-09-16T22:01:21.098Z,3.10
2022-09-16T22:03:59.134Z,3.75
2022-09-16T22:06:27.148Z,2.95
2022-09-16T22:08:55.475Z,3.30
2022-09-16T22:11:24.577Z,3.05
2022-09-16T22:13:51.350Z,3.05
2022-09-16T22:16:26.894Z,2.78
2022-09-16T22:18:55.560Z,3.28
2022-09-16T22:21:23.837Z,2.88
2022-09-16T22:23:50.914Z,3.55
2022-09-16T22:26:19.839Z,2.80
2022-09-16T22:28:47.476Z,3.90
2022-09-16T22:31:23.512Z,3.00
2022-09-16T22:33:51.812Z,3.65
2022-09-16T22:36:24.502Z,3.35
2022-09-16T22:38:56.979Z,3.80
2022-09-16T22:41:25.043Z,3.15
2022-09-16T22:43:53.476Z,3.03
2022-09-16T22:46:29.366Z,3.63
2022-09-16T22:48:57.546Z,3.17
2022-09-16T22:51:24.980Z,3.10
2022-09-16T22:53:51.995Z,3.47
2022-09-16T22:56:22.202Z,3.10
2022-09-16T22:58:53.416Z,3.17
2022-09-16T23:01:25.546Z,4.30
2022-09-16T23:03:55.201Z,3.20
2022-09-16T23:06:24.446Z,3.22
2022-09-16T23:08:52.907Z,2.88
2022-09-16T23:11:23.703Z,3.40
2022-09-16T23:13:52.622Z,2.60
2022-09-16T23:16:23.019Z,3.30
2022-09-16T23:18:50.703Z,3.33
2022-09-16T23:21:20.723Z,3.28
2022-09-16T23:24:00.383Z,3.28
2022-09-16T23:26:30.108Z,2.72
2022-09-16T23:28:58.889Z,3.08
2022-09-16T23:31:31.311Z,3.25
2022-09-16T23:33:58.508Z,2.92
2022-09-16T23:36:26.280Z,2.40
2022-09-16T23:38:53.941Z,2.42
2022-09-16T23:41:23.465Z,2.90
2022-09-16T23:43:50.904Z,3.15
2022-09-16T23:46:19.774Z,2.75
2022-09-16T23:48:47.517Z,3.40
2022-09-16T23:51:14.220Z,3.40
2022-09-16T23:53:42.646Z,3.58
2022-09-16T23:56:11.516Z,2.55
2022-09-16T23:58:38.609Z,3.17
